sensor_id;sensor_type;location;lat;lon;timestamp;P1;durP1;ratioP1;P2;durP2;ratioP2
18574;SDS011;9417;16.484;102.872;2023-09-19T00:01:07;15.63;;;14.13;;
18574;SDS011;9417;16.484;102.872;2023-09-19T00:03:15;15.00;;;13.68;;
18574;SDS011;9417;16.484;102.872;2023-09-19T00:05:23;16.30;;;14.90;;
18574;SDS011;9417;16.484;102.872;2023-09-19T00:07:31;15.07;;;13.77;;
18574;SDS011;9417;16.484;102.872;2023-09-19T00:09:40;4.78;;;4.28;;
18574;SDS011;9417;16.484;102.872;2023-09-19T00:11:49;15.13;;;13.85;;
18574;SDS011;9417;16.484;102.872;2023-09-19T00:13:57;16.20;;;14.75;;
18574;SDS011;9417;16.484;102.872;2023-09-19T00:16:08;5.95;;;4.50;;
18574;SDS011;9417;16.484;102.872;2023-09-19T00:18:16;9.85;;;8.80;;
18574;SDS011;9417;16.484;102.872;2023-09-19T00:20:25;18.17;;;16.60;;
18574;SDS011;9417;16.484;102.872;2023-09-19T00:22:34;18.65;;;16.95;;
18574;SDS011;9417;16.484;102.872;2023-09-19T00:24:44;17.17;;;15.50;;
18574;SDS011;9417;16.484;102.872;2023-09-19T00:26:54;6.70;;;4.18;;
18574;SDS011;9417;16.484;102.872;2023-09-19T00:29:00;5.88;;;4.05;;
18574;SDS011;9417;16.484;102.872;2023-09-19T00:31:12;5.78;;;4.43;;
18574;SDS011;9417;16.484;102.872;2023-09-19T00:33:19;5.97;;;4.13;;
18574;SDS011;9417;16.484;102.872;2023-09-19T00:35:26;6.13;;;3.95;;
18574;SDS011;9417;16.484;102.872;2023-09-19T00:37:34;6.45;;;4.50;;
18574;SDS011;9417;16.484;102.872;2023-09-19T00:39:43;8.07;;;3.92;;
18574;SDS011;9417;16.484;102.872;2023-09-19T00:41:50;6.03;;;3.80;;
18574;SDS011;9417;16.484;102.872;2023-09-19T00:43:59;7.28;;;3.55;;
18574;SDS011;9417;16.484;102.872;2023-09-19T00:46:07;4.68;;;3.15;;
18574;SDS011;9417;16.484;102.872;2023-09-19T00:48:15;5.32;;;3.30;;
18574;SDS011;9417;16.484;102.872;2023-09-19T00:50:26;4.40;;;3.00;;
18574;SDS011;9417;16.484;102.872;2023-09-19T00:52:35;6.32;;;4.22;;
18574;SDS011;9417;16.484;102.872;2023-09-19T00:54:44;9.50;;;8.82;;
18574;SDS011;9417;16.484;102.872;2023-09-19T00:56:54;9.32;;;8.65;;
18574;SDS011;9417;16.484;102.872;2023-09-19T00:59:02;6.15;;;5.55;;
18574;SDS011;9417;16.484;102.872;2023-09-19T01:01:10;6.35;;;5.85;;
18574;SDS011;9417;16.484;102.872;2023-09-19T01:03:18;5.22;;;3.50;;
18574;SDS011;9417;16.484;102.872;2023-09-19T01:05:26;5.32;;;2.80;;
18574;SDS011;9417;16.484;102.872;2023-09-19T01:07:33;5.65;;;3.00;;
18574;SDS011;9417;16.484;102.872;2023-09-19T01:09:40;6.93;;;6.35;;
18574;SDS011;9417;16.484;102.872;2023-09-19T01:11:48;7.40;;;6.80;;
18574;SDS011;9417;16.484;102.872;2023-09-19T01:14:01;6.95;;;6.25;;
18574;SDS011;9417;16.484;102.872;2023-09-19T01:16:26;9.10;;;8.48;;
18574;SDS011;9417;16.484;102.872;2023-09-19T01:18:54;8.35;;;7.75;;
18574;SDS011;9417;16.484;102.872;2023-09-19T01:21:15;5.28;;;2.70;;
18574;SDS011;9417;16.484;102.872;2023-09-19T01:23:30;3.80;;;2.88;;
18574;SDS011;9417;16.484;102.872;2023-09-19T01:26:04;3.75;;;2.67;;
18574;SDS011;9417;16.484;102.872;2023-09-19T01:28:29;4.15;;;3.20;;
18574;SDS011;9417;16.484;102.872;2023-09-19T01:30:44;4.90;;;3.15;;
18574;SDS011;9417;16.484;102.872;2023-09-19T01:32:55;3.65;;;3.08;;
18574;SDS011;9417;16.484;102.872;2023-09-19T01:35:03;3.83;;;2.95;;
18574;SDS011;9417;16.484;102.872;2023-09-19T01:37:11;2.85;;;2.30;;
18574;SDS011;9417;16.484;102.872;2023-09-19T01:39:23;3.25;;;2.67;;
18574;SDS011;9417;16.484;102.872;2023-09-19T01:41:33;3.78;;;2.88;;
18574;SDS011;9417;16.484;102.872;2023-09-19T01:43:47;3.03;;;2.50;;
18574;SDS011;9417;16.484;102.872;2023-09-19T01:45:59;5.75;;;2.95;;
18574;SDS011;9417;16.484;102.872;2023-09-19T01:48:19;3.58;;;2.55;;
18574;SDS011;9417;16.484;102.872;2023-09-19T01:50:38;3.63;;;2.30;;
18574;SDS011;9417;16.484;102.872;2023-09-19T01:52:49;2.72;;;1.90;;
18574;SDS011;9417;16.484;102.872;2023-09-19T01:55:05;4.15;;;2.10;;
18574;SDS011;9417;16.484;102.872;2023-09-19T01:57:16;3.13;;;1.97;;
18574;SDS011;9417;16.484;102.872;2023-09-19T01:59:34;2.50;;;1.83;;
18574;SDS011;9417;16.484;102.872;2023-09-19T02:01:48;3.17;;;1.73;;
18574;SDS011;9417;16.484;102.872;2023-09-19T02:03:58;2.88;;;1.75;;
18574;SDS011;9417;16.484;102.872;2023-09-19T02:06:06;2.58;;;1.70;;
18574;SDS011;9417;16.484;102.872;2023-09-19T02:08:15;3.45;;;1.92;;
18574;SDS011;9417;16.484;102.872;2023-09-19T02:10:24;2.92;;;1.80;;
18574;SDS011;9417;16.484;102.872;2023-09-19T02:12:33;3.22;;;1.98;;
18574;SDS011;9417;16.484;102.872;2023-09-19T02:14:41;2.17;;;1.60;;
18574;SDS011;9417;16.484;102.872;2023-09-19T02:16:50;3.13;;;1.50;;
18574;SDS011;9417;16.484;102.872;2023-09-19T02:18:56;4.53;;;1.60;;
18574;SDS011;9417;16.484;102.872;2023-09-19T02:21:04;4.35;;;1.98;;
18574;SDS011;9417;16.484;102.872;2023-09-19T02:23:13;3.85;;;2.20;;
18574;SDS011;9417;16.484;102.872;2023-09-19T02:25:21;4.30;;;2.38;;
18574;SDS011;9417;16.484;102.872;2023-09-19T02:27:30;3.03;;;2.08;;
18574;SDS011;9417;16.484;102.872;2023-09-19T02:29:37;3.33;;;2.17;;
18574;SDS011;9417;16.484;102.872;2023-09-19T02:31:45;4.55;;;3.20;;
18574;SDS011;9417;16.484;102.872;2023-09-19T02:33:54;3.55;;;2.42;;
18574;SDS011;9417;16.484;102.872;2023-09-19T02:36:01;3.63;;;2.80;;
18574;SDS011;9417;16.484;102.872;2023-09-19T02:38:09;3.70;;;2.60;;
18574;SDS011;9417;16.484;102.872;2023-09-19T02:40:16;4.97;;;3.13;;
18574;SDS011;9417;16.484;102.872;2023-09-19T02:42:24;7.60;;;3.45;;
18574;SDS011;9417;16.484;102.872;2023-09-19T02:44:31;6.20;;;3.72;;
18574;SDS011;9417;16.484;102.872;2023-09-19T02:46:39;6.15;;;3.90;;
18574;SDS011;9417;16.484;102.872;2023-09-19T02:48:46;7.95;;;3.70;;
18574;SDS011;9417;16.484;102.872;2023-09-19T02:50:55;6.32;;;3.20;;
18574;SDS011;9417;16.484;102.872;2023-09-19T02:53:03;7.60;;;3.55;;
18574;SDS011;9417;16.484;102.872;2023-09-19T02:55:10;5.07;;;3.33;;
18574;SDS011;9417;16.484;102.872;2023-09-19T02:57:21;6.20;;;3.23;;
18574;SDS011;9417;16.484;102.872;2023-09-19T02:59:29;4.53;;;3.05;;
18574;SDS011;9417;16.484;102.872;2023-09-19T03:01:42;6.43;;;3.55;;
18574;SDS011;9417;16.484;102.872;2023-09-19T03:03:51;6.13;;;3.75;;
18574;SDS011;9417;16.484;102.872;2023-09-19T03:06:01;6.30;;;3.60;;
18574;SDS011;9417;16.484;102.872;2023-09-19T03:08:08;4.85;;;3.28;;
18574;SDS011;9417;16.484;102.872;2023-09-19T03:10:19;6.80;;;3.80;;
18574;SDS011;9417;16.484;102.872;2023-09-19T03:12:28;5.45;;;3.55;;
18574;SDS011;9417;16.484;102.872;2023-09-19T03:14:37;9.38;;;4.57;;
18574;SDS011;9417;16.484;102.872;2023-09-19T03:16:44;5.50;;;4.00;;
18574;SDS011;9417;16.484;102.872;2023-09-19T03:18:51;10.75;;;5.53;;
18574;SDS011;9417;16.484;102.872;2023-09-19T03:21:00;9.52;;;5.13;;
18574;SDS011;9417;16.484;102.872;2023-09-19T03:23:08;10.70;;;5.82;;
18574;SDS011;9417;16.484;102.872;2023-09-19T03:25:17;11.57;;;6.28;;
18574;SDS011;9417;16.484;102.872;2023-09-19T03:27:25;11.00;;;5.70;;
18574;SDS011;9417;16.484;102.872;2023-09-19T03:29:32;11.40;;;6.03;;
18574;SDS011;9417;16.484;102.872;2023-09-19T03:31:39;11.00;;;6.93;;
18574;SDS011;9417;16.484;102.872;2023-09-19T03:33:47;10.65;;;6.20;;
18574;SDS011;9417;16.484;102.872;2023-09-19T03:35:56;12.25;;;7.25;;
18574;SDS011;9417;16.484;102.872;2023-09-19T03:38:06;12.55;;;6.95;;
18574;SDS011;9417;16.484;102.872;2023-09-19T03:40:14;12.52;;;7.00;;
18574;SDS011;9417;16.484;102.872;2023-09-19T03:42:24;11.18;;;6.85;;
18574;SDS011;9417;16.484;102.872;2023-09-19T03:44:31;10.10;;;7.03;;
18574;SDS011;9417;16.484;102.872;2023-09-19T03:46:39;12.15;;;7.82;;
18574;SDS011;9417;16.484;102.872;2023-09-19T03:48:46;10.05;;;8.73;;
18574;SDS011;9417;16.484;102.872;2023-09-19T03:50:54;10.30;;;9.20;;
18574;SDS011;9417;16.484;102.872;2023-09-19T03:53:01;10.77;;;9.68;;
18574;SDS011;9417;16.484;102.872;2023-09-19T03:55:12;13.13;;;10.07;;
18574;SDS011;9417;16.484;102.872;2023-09-19T03:57:18;10.68;;;9.57;;
18574;SDS011;9417;16.484;102.872;2023-09-19T03:59:26;10.27;;;9.27;;
18574;SDS011;9417;16.484;102.872;2023-09-19T04:01:33;9.82;;;8.93;;
18574;SDS011;9417;16.484;102.872;2023-09-19T04:03:40;9.88;;;8.98;;
18574;SDS011;9417;16.484;102.872;2023-09-19T04:05:55;8.85;;;7.95;;
18574;SDS011;9417;16.484;102.872;2023-09-19T04:08:02;9.40;;;8.23;;
18574;SDS011;9417;16.484;102.872;2023-09-19T04:10:09;8.25;;;7.45;;
18574;SDS011;9417;16.484;102.872;2023-09-19T04:12:18;10.13;;;8.23;;
18574;SDS011;9417;16.484;102.872;2023-09-19T04:14:26;18.13;;;16.30;;
18574;SDS011;9417;16.484;102.872;2023-09-19T04:16:33;11.18;;;9.15;;
18574;SDS011;9417;16.484;102.872;2023-09-19T04:18:41;8.50;;;7.70;;
18574;SDS011;9417;16.484;102.872;2023-09-19T04:20:49;6.15;;;5.55;;
18574;SDS011;9417;16.484;102.872;2023-09-19T04:22:56;5.88;;;5.28;;
18574;SDS011;9417;16.484;102.872;2023-09-19T04:25:03;10.73;;;9.95;;
18574;SDS011;9417;16.484;102.872;2023-09-19T04:27:12;5.95;;;5.32;;
18574;SDS011;9417;16.484;102.872;2023-09-19T04:29:20;7.20;;;5.13;;
18574;SDS011;9417;16.484;102.872;2023-09-19T04:31:27;7.95;;;5.70;;
18574;SDS011;9417;16.484;102.872;2023-09-19T04:33:33;5.70;;;4.10;;
18574;SDS011;9417;16.484;102.872;2023-09-19T04:35:41;4.63;;;3.70;;
18574;SDS011;9417;16.484;102.872;2023-09-19T04:37:50;4.82;;;3.90;;
18574;SDS011;9417;16.484;102.872;2023-09-19T04:39:58;3.67;;;3.38;;
18574;SDS011;9417;16.484;102.872;2023-09-19T04:42:07;5.22;;;3.33;;
18574;SDS011;9417;16.484;102.872;2023-09-19T04:44:20;5.80;;;3.30;;
18574;SDS011;9417;16.484;102.872;2023-09-19T04:46:27;3.75;;;3.40;;
18574;SDS011;9417;16.484;102.872;2023-09-19T04:48:37;3.63;;;3.25;;
18574;SDS011;9417;16.484;102.872;2023-09-19T04:50:45;3.47;;;3.17;;
18574;SDS011;9417;16.484;102.872;2023-09-19T04:52:54;4.82;;;3.35;;
18574;SDS011;9417;16.484;102.872;2023-09-19T04:55:01;4.65;;;3.30;;
18574;SDS011;9417;16.484;102.872;2023-09-19T04:57:08;3.63;;;3.28;;
18574;SDS011;9417;16.484;102.872;2023-09-19T04:59:16;3.55;;;3.25;;
18574;SDS011;9417;16.484;102.872;2023-09-19T05:01:25;4.40;;;3.38;;
18574;SDS011;9417;16.484;102.872;2023-09-19T05:03:33;3.65;;;2.58;;
18574;SDS011;9417;16.484;102.872;2023-09-19T05:05:41;3.25;;;2.78;;
18574;SDS011;9417;16.484;102.872;2023-09-19T05:07:48;4.72;;;3.00;;
18574;SDS011;9417;16.484;102.872;2023-09-19T05:09:58;4.18;;;2.70;;
18574;SDS011;9417;16.484;102.872;2023-09-19T05:12:05;3.25;;;2.83;;
18574;SDS011;9417;16.484;102.872;2023-09-19T05:14:14;2.47;;;2.13;;
18574;SDS011;9417;16.484;102.872;2023-09-19T05:16:23;3.38;;;2.45;;
18574;SDS011;9417;16.484;102.872;2023-09-19T05:18:31;4.15;;;2.40;;
18574;SDS011;9417;16.484;102.872;2023-09-19T05:20:38;2.90;;;2.45;;
18574;SDS011;9417;16.484;102.872;2023-09-19T05:22:46;3.55;;;2.22;;
18574;SDS011;9417;16.484;102.872;2023-09-19T05:24:52;2.88;;;2.20;;
18574;SDS011;9417;16.484;102.872;2023-09-19T05:26:59;3.13;;;2.35;;
18574;SDS011;9417;16.484;102.872;2023-09-19T05:29:08;2.63;;;2.20;;
18574;SDS011;9417;16.484;102.872;2023-09-19T05:31:15;3.63;;;2.15;;
18574;SDS011;9417;16.484;102.872;2023-09-19T05:33:25;2.97;;;1.83;;
18574;SDS011;9417;16.484;102.872;2023-09-19T05:35:35;2.67;;;2.20;;
18574;SDS011;9417;16.484;102.872;2023-09-19T05:37:43;2.92;;;1.90;;
18574;SDS011;9417;16.484;102.872;2023-09-19T05:39:49;2.25;;;1.90;;
18574;SDS011;9417;16.484;102.872;2023-09-19T05:41:56;2.17;;;1.90;;
18574;SDS011;9417;16.484;102.872;2023-09-19T05:44:04;2.83;;;2.00;;
18574;SDS011;9417;16.484;102.872;2023-09-19T05:46:11;2.13;;;1.75;;
18574;SDS011;9417;16.484;102.872;2023-09-19T05:48:19;6.82;;;2.03;;
18574;SDS011;9417;16.484;102.872;2023-09-19T05:50:28;2.38;;;2.08;;
18574;SDS011;9417;16.484;102.872;2023-09-19T05:52:36;3.75;;;1.88;;
18574;SDS011;9417;16.484;102.872;2023-09-19T05:54:44;2.13;;;1.92;;
18574;SDS011;9417;16.484;102.872;2023-09-19T05:56:53;1.90;;;1.70;;
18574;SDS011;9417;16.484;102.872;2023-09-19T05:59:01;3.05;;;1.85;;
18574;SDS011;9417;16.484;102.872;2023-09-19T06:01:08;2.90;;;1.83;;
18574;SDS011;9417;16.484;102.872;2023-09-19T06:03:15;2.10;;;1.90;;
18574;SDS011;9417;16.484;102.872;2023-09-19T06:05:24;2.38;;;2.00;;
18574;SDS011;9417;16.484;102.872;2023-09-19T06:07:32;2.70;;;1.80;;
18574;SDS011;9417;16.484;102.872;2023-09-19T06:09:41;5.30;;;2.00;;
18574;SDS011;9417;16.484;102.872;2023-09-19T06:11:48;3.63;;;2.08;;
18574;SDS011;9417;16.484;102.872;2023-09-19T06:13:55;6.95;;;2.22;;
18574;SDS011;9417;16.484;102.872;2023-09-19T06:16:03;2.67;;;2.00;;
18574;SDS011;9417;16.484;102.872;2023-09-19T06:18:11;2.72;;;2.00;;
18574;SDS011;9417;16.484;102.872;2023-09-19T06:20:23;2.50;;;1.85;;
18574;SDS011;9417;16.484;102.872;2023-09-19T06:22:33;2.72;;;2.20;;
18574;SDS011;9417;16.484;102.872;2023-09-19T06:24:40;2.75;;;2.47;;
18574;SDS011;9417;16.484;102.872;2023-09-19T06:26:48;2.97;;;2.35;;
18574;SDS011;9417;16.484;102.872;2023-09-19T06:28:56;2.60;;;2.22;;
18574;SDS011;9417;16.484;102.872;2023-09-19T06:31:04;2.42;;;2.22;;
18574;SDS011;9417;16.484;102.872;2023-09-19T06:33:13;2.65;;;2.13;;
18574;SDS011;9417;16.484;102.872;2023-09-19T06:35:21;4.38;;;2.10;;
18574;SDS011;9417;16.484;102.872;2023-09-19T06:37:29;3.45;;;2.33;;
18574;SDS011;9417;16.484;102.872;2023-09-19T06:39:39;2.65;;;1.90;;
18574;SDS011;9417;16.484;102.872;2023-09-19T06:41:47;2.70;;;2.30;;
18574;SDS011;9417;16.484;102.872;2023-09-19T06:43:57;2.92;;;1.98;;
18574;SDS011;9417;16.484;102.872;2023-09-19T06:46:04;2.50;;;2.30;;
18574;SDS011;9417;16.484;102.872;2023-09-19T06:48:12;2.45;;;2.03;;
18574;SDS011;9417;16.484;102.872;2023-09-19T06:50:20;2.58;;;2.00;;
18574;SDS011;9417;16.484;102.872;2023-09-19T06:52:28;2.50;;;1.85;;
18574;SDS011;9417;16.484;102.872;2023-09-19T06:54:35;3.17;;;2.47;;
18574;SDS011;9417;16.484;102.872;2023-09-19T06:56:47;2.30;;;2.10;;
18574;SDS011;9417;16.484;102.872;2023-09-19T06:58:54;3.30;;;2.20;;
18574;SDS011;9417;16.484;102.872;2023-09-19T07:01:01;2.38;;;1.80;;
18574;SDS011;9417;16.484;102.872;2023-09-19T07:03:08;2.20;;;2.00;;
18574;SDS011;9417;16.484;102.872;2023-09-19T07:05:16;4.20;;;2.45;;
18574;SDS011;9417;16.484;102.872;2023-09-19T07:07:24;2.63;;;2.42;;
18574;SDS011;9417;16.484;102.872;2023-09-19T07:09:33;3.17;;;2.45;;
18574;SDS011;9417;16.484;102.872;2023-09-19T07:11:40;3.28;;;2.55;;
18574;SDS011;9417;16.484;102.872;2023-09-19T07:13:50;3.13;;;2.42;;
18574;SDS011;9417;16.484;102.872;2023-09-19T07:15:58;2.80;;;2.50;;
18574;SDS011;9417;16.484;102.872;2023-09-19T07:18:06;2.70;;;2.50;;
18574;SDS011;9417;16.484;102.872;2023-09-19T07:20:14;2.53;;;2.08;;
18574;SDS011;9417;16.484;102.872;2023-09-19T07:22:22;3.25;;;2.55;;
18574;SDS011;9417;16.484;102.872;2023-09-19T07:24:30;3.22;;;2.60;;
18574;SDS011;9417;16.484;102.872;2023-09-19T07:26:37;4.63;;;2.72;;
18574;SDS011;9417;16.484;102.872;2023-09-19T07:28:45;3.70;;;2.80;;
18574;SDS011;9417;16.484;102.872;2023-09-19T07:30:54;3.22;;;2.42;;
18574;SDS011;9417;16.484;102.872;2023-09-19T07:33:01;3.58;;;2.60;;
18574;SDS011;9417;16.484;102.872;2023-09-19T07:35:09;3.22;;;2.80;;
18574;SDS011;9417;16.484;102.872;2023-09-19T07:37:17;3.20;;;2.65;;
18574;SDS011;9417;16.484;102.872;2023-09-19T07:39:25;3.05;;;2.75;;
18574;SDS011;9417;16.484;102.872;2023-09-19T07:41:33;3.28;;;2.75;;
18574;SDS011;9417;16.484;102.872;2023-09-19T07:43:39;9.95;;;9.00;;
18574;SDS011;9417;16.484;102.872;2023-09-19T07:45:47;15.60;;;14.10;;
18574;SDS011;9417;16.484;102.872;2023-09-19T07:47:56;15.43;;;13.93;;
18574;SDS011;9417;16.484;102.872;2023-09-19T07:50:05;15.40;;;14.00;;
18574;SDS011;9417;16.484;102.872;2023-09-19T07:52:13;15.32;;;13.82;;
18574;SDS011;9417;16.484;102.872;2023-09-19T07:54:21;3.95;;;2.40;;
18574;SDS011;9417;16.484;102.872;2023-09-19T07:56:29;3.15;;;2.45;;
18574;SDS011;9417;16.484;102.872;2023-09-19T07:58:38;2.28;;;2.03;;
18574;SDS011;9417;16.484;102.872;2023-09-19T08:00:46;3.08;;;2.50;;
18574;SDS011;9417;16.484;102.872;2023-09-19T08:02:56;2.60;;;2.38;;
18574;SDS011;9417;16.484;102.872;2023-09-19T08:05:14;2.90;;;2.50;;
18574;SDS011;9417;16.484;102.872;2023-09-19T08:07:22;2.50;;;2.30;;
18574;SDS011;9417;16.484;102.872;2023-09-19T08:09:28;4.43;;;2.30;;
18574;SDS011;9417;16.484;102.872;2023-09-19T08:11:37;2.60;;;2.40;;
18574;SDS011;9417;16.484;102.872;2023-09-19T08:13:45;2.70;;;2.50;;
18574;SDS011;9417;16.484;102.872;2023-09-19T08:15:52;2.78;;;2.58;;
18574;SDS011;9417;16.484;102.872;2023-09-19T08:18:02;2.80;;;2.50;;
18574;SDS011;9417;16.484;102.872;2023-09-19T08:20:11;3.15;;;2.72;;
18574;SDS011;9417;16.484;102.872;2023-09-19T08:22:20;3.25;;;2.95;;
18574;SDS011;9417;16.484;102.872;2023-09-19T08:24:29;4.55;;;2.78;;
18574;SDS011;9417;16.484;102.872;2023-09-19T08:26:36;2.70;;;2.45;;
18574;SDS011;9417;16.484;102.872;2023-09-19T08:28:44;2.83;;;2.53;;
18574;SDS011;9417;16.484;102.872;2023-09-19T08:30:51;3.70;;;2.90;;
18574;SDS011;9417;16.484;102.872;2023-09-19T08:32:59;3.47;;;2.65;;
18574;SDS011;9417;16.484;102.872;2023-09-19T08:35:09;3.22;;;2.50;;
18574;SDS011;9417;16.484;102.872;2023-09-19T08:37:16;3.97;;;2.83;;
18574;SDS011;9417;16.484;102.872;2023-09-19T08:39:24;3.45;;;3.08;;
18574;SDS011;9417;16.484;102.872;2023-09-19T08:41:31;3.15;;;2.85;;
18574;SDS011;9417;16.484;102.872;2023-09-19T08:43:38;3.83;;;3.10;;
18574;SDS011;9417;16.484;102.872;2023-09-19T08:45:45;3.20;;;2.90;;
18574;SDS011;9417;16.484;102.872;2023-09-19T08:47:53;4.20;;;3.03;;
18574;SDS011;9417;16.484;102.872;2023-09-19T08:50:11;3.58;;;2.88;;
18574;SDS011;9417;16.484;102.872;2023-09-19T08:52:25;3.08;;;2.50;;
18574;SDS011;9417;16.484;102.872;2023-09-19T08:54:38;4.45;;;2.90;;
18574;SDS011;9417;16.484;102.872;2023-09-19T08:56:47;3.38;;;3.08;;
18574;SDS011;9417;16.484;102.872;2023-09-19T08:58:57;3.10;;;2.75;;
18574;SDS011;9417;16.484;102.872;2023-09-19T09:01:08;3.72;;;2.53;;
18574;SDS011;9417;16.484;102.872;2023-09-19T09:03:18;3.45;;;2.83;;
18574;SDS011;9417;16.484;102.872;2023-09-19T09:05:28;3.33;;;2.80;;
18574;SDS011;9417;16.484;102.872;2023-09-19T09:07:36;3.10;;;2.80;;
18574;SDS011;9417;16.484;102.872;2023-09-19T09:09:44;2.90;;;2.60;;
18574;SDS011;9417;16.484;102.872;2023-09-19T09:11:52;3.83;;;3.20;;
18574;SDS011;9417;16.484;102.872;2023-09-19T09:14:00;3.50;;;3.20;;
18574;SDS011;9417;16.484;102.872;2023-09-19T09:16:08;4.32;;;3.40;;
18574;SDS011;9417;16.484;102.872;2023-09-19T09:18:16;8.23;;;3.65;;
18574;SDS011;9417;16.484;102.872;2023-09-19T09:20:23;3.80;;;2.97;;
18574;SDS011;9417;16.484;102.872;2023-09-19T09:22:33;5.22;;;3.20;;
18574;SDS011;9417;16.484;102.872;2023-09-19T09:24:51;3.90;;;3.03;;
18574;SDS011;9417;16.484;102.872;2023-09-19T09:27:03;3.42;;;2.45;;
18574;SDS011;9417;16.484;102.872;2023-09-19T09:29:12;11.80;;;10.98;;
18574;SDS011;9417;16.484;102.872;2023-09-19T09:31:23;12.48;;;11.68;;
18574;SDS011;9417;16.484;102.872;2023-09-19T09:33:31;3.58;;;2.97;;
18574;SDS011;9417;16.484;102.872;2023-09-19T09:35:47;3.17;;;2.88;;
18574;SDS011;9417;16.484;102.872;2023-09-19T09:38:03;3.83;;;3.00;;
18574;SDS011;9417;16.484;102.872;2023-09-19T09:40:13;3.70;;;3.30;;
18574;SDS011;9417;16.484;102.872;2023-09-19T09:42:39;5.07;;;3.05;;
18574;SDS011;9417;16.484;102.872;2023-09-19T09:44:51;3.13;;;2.83;;
18574;SDS011;9417;16.484;102.872;2023-09-19T09:49:53;3.70;;;3.40;;
18574;SDS011;9417;16.484;102.872;2023-09-19T09:52:11;4.00;;;3.45;;
18574;SDS011;9417;16.484;102.872;2023-09-19T09:54:22;3.47;;;3.17;;
18574;SDS011;9417;16.484;102.872;2023-09-19T09:56:31;3.25;;;2.95;;
18574;SDS011;9417;16.484;102.872;2023-09-19T09:58:38;5.15;;;3.00;;
18574;SDS011;9417;16.484;102.872;2023-09-19T10:00:57;4.20;;;3.42;;
18574;SDS011;9417;16.484;102.872;2023-09-19T10:03:16;4.57;;;3.17;;
18574;SDS011;9417;16.484;102.872;2023-09-19T10:05:26;3.63;;;3.33;;
18574;SDS011;9417;16.484;102.872;2023-09-19T10:07:34;3.95;;;3.20;;
18574;SDS011;9417;16.484;102.872;2023-09-19T10:09:48;3.35;;;3.05;;
18574;SDS011;9417;16.484;102.872;2023-09-19T10:12:00;3.85;;;3.45;;
18574;SDS011;9417;16.484;102.872;2023-09-19T10:14:14;3.47;;;3.08;;
18574;SDS011;9417;16.484;102.872;2023-09-19T10:16:23;3.83;;;3.50;;
18574;SDS011;9417;16.484;102.872;2023-09-19T10:18:32;4.85;;;3.42;;
18574;SDS011;9417;16.484;102.872;2023-09-19T10:20:43;4.50;;;3.25;;
18574;SDS011;9417;16.484;102.872;2023-09-19T10:22:50;4.35;;;3.70;;
18574;SDS011;9417;16.484;102.872;2023-09-19T10:25:04;4.50;;;3.50;;
18574;SDS011;9417;16.484;102.872;2023-09-19T10:27:13;3.45;;;2.90;;
18574;SDS011;9417;16.484;102.872;2023-09-19T10:29:23;3.78;;;3.33;;
18574;SDS011;9417;16.484;102.872;2023-09-19T10:31:34;4.10;;;3.80;;
18574;SDS011;9417;16.484;102.872;2023-09-19T10:33:51;5.13;;;3.67;;
18574;SDS011;9417;16.484;102.872;2023-09-19T10:35:59;7.45;;;4.00;;
18574;SDS011;9417;16.484;102.872;2023-09-19T10:38:06;5.60;;;4.40;;
18574;SDS011;9417;16.484;102.872;2023-09-19T10:40:18;8.23;;;4.70;;
18574;SDS011;9417;16.484;102.872;2023-09-19T10:42:26;6.85;;;4.97;;
18574;SDS011;9417;16.484;102.872;2023-09-19T10:44:35;9.02;;;5.10;;
18574;SDS011;9417;16.484;102.872;2023-09-19T10:46:47;8.43;;;5.80;;
18574;SDS011;9417;16.484;102.872;2023-09-19T10:48:58;8.27;;;5.95;;
18574;SDS011;9417;16.484;102.872;2023-09-19T10:51:06;10.18;;;6.68;;
18574;SDS011;9417;16.484;102.872;2023-09-19T10:53:16;9.38;;;6.32;;
18574;SDS011;9417;16.484;102.872;2023-09-19T10:55:24;10.90;;;6.47;;
18574;SDS011;9417;16.484;102.872;2023-09-19T10:57:34;11.53;;;6.77;;
18574;SDS011;9417;16.484;102.872;2023-09-19T10:59:47;12.05;;;6.45;;
18574;SDS011;9417;16.484;102.872;2023-09-19T11:02:25;8.73;;;6.72;;
18574;SDS011;9417;16.484;102.872;2023-09-19T11:04:33;9.38;;;6.68;;
18574;SDS011;9417;16.484;102.872;2023-09-19T11:06:42;13.00;;;6.82;;
18574;SDS011;9417;16.484;102.872;2023-09-19T11:09:06;7.07;;;5.63;;
18574;SDS011;9417;16.484;102.872;2023-09-19T11:11:42;8.00;;;6.00;;
18574;SDS011;9417;16.484;102.872;2023-09-19T11:16:20;9.65;;;6.30;;
18574;SDS011;9417;16.484;102.872;2023-09-19T11:23:39;8.60;;;6.15;;
18574;SDS011;9417;16.484;102.872;2023-09-19T11:25:47;10.85;;;6.68;;
18574;SDS011;9417;16.484;102.872;2023-09-19T11:30:38;10.27;;;6.25;;
18574;SDS011;9417;16.484;102.872;2023-09-19T11:35:37;9.15;;;6.55;;
18574;SDS011;9417;16.484;102.872;2023-09-19T11:38:05;9.63;;;6.57;;
18574;SDS011;9417;16.484;102.872;2023-09-19T11:40:14;8.60;;;6.03;;
18574;SDS011;9417;16.484;102.872;2023-09-19T11:44:59;10.43;;;7.07;;
18574;SDS011;9417;16.484;102.872;2023-09-19T11:47:06;12.15;;;7.68;;
18574;SDS011;9417;16.484;102.872;2023-09-19T11:49:16;13.48;;;8.52;;
18574;SDS011;9417;16.484;102.872;2023-09-19T11:51:24;12.95;;;8.77;;
18574;SDS011;9417;16.484;102.872;2023-09-19T11:53:32;11.85;;;8.82;;
18574;SDS011;9417;16.484;102.872;2023-09-19T11:55:42;11.85;;;8.65;;
18574;SDS011;9417;16.484;102.872;2023-09-19T11:57:50;11.60;;;9.32;;
18574;SDS011;9417;16.484;102.872;2023-09-19T12:00:02;13.15;;;8.82;;
18574;SDS011;9417;16.484;102.872;2023-09-19T12:02:13;10.77;;;8.07;;
18574;SDS011;9417;16.484;102.872;2023-09-19T12:04:34;10.15;;;8.10;;
18574;SDS011;9417;16.484;102.872;2023-09-19T12:06:43;13.00;;;9.02;;
18574;SDS011;9417;16.484;102.872;2023-09-19T12:09:02;17.80;;;9.88;;
18574;SDS011;9417;16.484;102.872;2023-09-19T12:11:15;15.30;;;9.60;;
18574;SDS011;9417;16.484;102.872;2023-09-19T12:13:24;14.23;;;9.45;;
18574;SDS011;9417;16.484;102.872;2023-09-19T12:15:35;14.90;;;9.82;;
18574;SDS011;9417;16.484;102.872;2023-09-19T12:17:43;12.93;;;9.55;;
18574;SDS011;9417;16.484;102.872;2023-09-19T12:19:53;14.13;;;10.05;;
18574;SDS011;9417;16.484;102.872;2023-09-19T12:22:02;17.02;;;9.82;;
18574;SDS011;9417;16.484;102.872;2023-09-19T12:24:11;16.92;;;9.77;;
18574;SDS011;9417;16.484;102.872;2023-09-19T12:26:23;13.05;;;10.30;;
18574;SDS011;9417;16.484;102.872;2023-09-19T12:28:30;15.27;;;9.93;;
18574;SDS011;9417;16.484;102.872;2023-09-19T12:30:48;19.00;;;10.88;;
18574;SDS011;9417;16.484;102.872;2023-09-19T12:32:59;16.35;;;11.07;;
18574;SDS011;9417;16.484;102.872;2023-09-19T12:35:07;13.82;;;10.70;;
18574;SDS011;9417;16.484;102.872;2023-09-19T12:37:15;16.25;;;10.52;;
18574;SDS011;9417;16.484;102.872;2023-09-19T12:39:26;13.90;;;11.30;;
18574;SDS011;9417;16.484;102.872;2023-09-19T12:41:33;16.08;;;12.02;;
18574;SDS011;9417;16.484;102.872;2023-09-19T12:43:43;16.55;;;11.23;;
18574;SDS011;9417;16.484;102.872;2023-09-19T12:45:52;14.48;;;11.15;;
18574;SDS011;9417;16.484;102.872;2023-09-19T12:50:26;16.05;;;11.60;;
18574;SDS011;9417;16.484;102.872;2023-09-19T12:52:36;16.50;;;11.25;;
18574;SDS011;9417;16.484;102.872;2023-09-19T12:54:44;12.65;;;10.20;;
18574;SDS011;9417;16.484;102.872;2023-09-19T12:56:54;12.90;;;10.88;;
18574;SDS011;9417;16.484;102.872;2023-09-19T12:59:02;15.30;;;10.80;;
18574;SDS011;9417;16.484;102.872;2023-09-19T13:01:15;14.23;;;11.30;;
18574;SDS011;9417;16.484;102.872;2023-09-19T13:03:25;15.73;;;11.75;;
18574;SDS011;9417;16.484;102.872;2023-09-19T13:08:05;14.80;;;11.25;;
18574;SDS011;9417;16.484;102.872;2023-09-19T13:10:24;15.02;;;10.38;;